sensor_id;sensor_type;location;lat;lon;timestamp;temperature;humidity
36444;DHT22;24692;45.642;13.806;2022-12-04T00:02:24;10.30;99.90
36444;DHT22;24692;45.642;13.806;2022-12-04T00:04:50;10.20;99.90
36444;DHT22;24692;45.642;13.806;2022-12-04T00:07:16;10.20;99.90
36444;DHT22;24692;45.642;13.806;2022-12-04T00:09:41;10.30;99.90
36444;DHT22;24692;45.642;13.806;2022-12-04T00:12:07;10.30;99.90
36444;DHT22;24692;45.642;13.806;2022-12-04T00:14:33;10.30;99.90
36444;DHT22;24692;45.642;13.806;2022-12-04T00:16:58;10.20;99.90
36444;DHT22;24692;45.642;13.806;2022-12-04T00:19:24;10.20;99.90
36444;DHT22;24692;45.642;13.806;2022-12-04T00:21:50;10.20;99.90
36444;DHT22;24692;45.642;13.806;2022-12-04T00:24:16;10.20;99.90
36444;DHT22;24692;45.642;13.806;2022-12-04T00:26:41;10.20;99.90
36444;DHT22;24692;45.642;13.806;2022-12-04T00:29:07;10.20;99.90
36444;DHT22;24692;45.642;13.806;2022-12-04T00:31:33;10.30;99.90
36444;DHT22;24692;45.642;13.806;2022-12-04T00:33:59;10.40;99.90
36444;DHT22;24692;45.642;13.806;2022-12-04T00:36:26;10.60;99.90
36444;DHT22;24692;45.642;13.806;2022-12-04T00:38:53;10.80;99.90
36444;DHT22;24692;45.642;13.806;2022-12-04T00:41:21;11.00;99.90
36444;DHT22;24692;45.642;13.806;2022-12-04T00:43:47;11.00;99.90
36444;DHT22;24692;45.642;13.806;2022-12-04T00:46:13;11.00;99.90
36444;DHT22;24692;45.642;13.806;2022-12-04T00:48:39;11.00;99.90
36444;DHT22;24692;45.642;13.806;2022-12-04T00:51:08;11.00;99.90
36444;DHT22;24692;45.642;13.806;2022-12-04T00:53:34;10.80;99.90
36444;DHT22;24692;45.642;13.806;2022-12-04T00:56:08;10.70;99.90
36444;DHT22;24692;45.642;13.806;2022-12-04T00:58:34;10.70;99.90
36444;DHT22;24692;45.642;13.806;2022-12-04T01:01:12;10.70;99.90
36444;DHT22;24692;45.642;13.806;2022-12-04T01:03:39;10.80;99.90
36444;DHT22;24692;45.642;13.806;2022-12-04T01:06:06;10.80;99.90
36444;DHT22;24692;45.642;13.806;2022-12-04T01:08:32;10.80;99.90
36444;DHT22;24692;45.642;13.806;2022-12-04T01:10:58;10.80;99.90
36444;DHT22;24692;45.642;13.806;2022-12-04T01:13:24;10.80;99.90
36444;DHT22;24692;45.642;13.806;2022-12-04T01:15:50;10.70;99.90
36444;DHT22;24692;45.642;13.806;2022-12-04T01:18:17;10.70;99.90
36444;DHT22;24692;45.642;13.806;2022-12-04T01:20:47;10.60;99.90
36444;DHT22;24692;45.642;13.806;2022-12-04T01:23:13;10.40;99.90
36444;DHT22;24692;45.642;13.806;2022-12-04T01:25:39;10.30;99.90
36444;DHT22;24692;45.642;13.806;2022-12-04T01:28:05;10.20;99.90
36444;DHT22;24692;45.642;13.806;2022-12-04T01:30:30;10.20;99.90
36444;DHT22;24692;45.642;13.806;2022-12-04T01:32:56;10.10;99.90
36444;DHT22;24692;45.642;13.806;2022-12-04T01:35:21;10.20;99.90
36444;DHT22;24692;45.642;13.806;2022-12-04T01:37:47;10.20;99.90
36444;DHT22;24692;45.642;13.806;2022-12-04T01:40:15;10.10;99.90
36444;DHT22;24692;45.642;13.806;2022-12-04T01:42:41;10.10;99.90
36444;DHT22;24692;45.642;13.806;2022-12-04T01:48:29;10.00;99.90
36444;DHT22;24692;45.642;13.806;2022-12-04T01:51:16;9.80;99.90
36444;DHT22;24692;45.642;13.806;2022-12-04T01:53:48;9.70;99.90
36444;DHT22;24692;45.642;13.806;2022-12-04T01:56:15;9.60;99.90
36444;DHT22;24692;45.642;13.806;2022-12-04T01:58:45;9.60;99.90
36444;DHT22;24692;45.642;13.806;2022-12-04T02:01:12;9.50;99.90
36444;DHT22;24692;45.642;13.806;2022-12-04T02:03:38;9.50;99.90
36444;DHT22;24692;45.642;13.806;2022-12-04T02:06:05;9.50;99.90
36444;DHT22;24692;45.642;13.806;2022-12-04T02:08:31;9.50;99.90
36444;DHT22;24692;45.642;13.806;2022-12-04T02:13:57;9.50;99.90
36444;DHT22;24692;45.642;13.806;2022-12-04T02:21:48;9.70;99.90
36444;DHT22;24692;45.642;13.806;2022-12-04T02:30:09;9.50;99.90
36444;DHT22;24692;45.642;13.806;2022-12-04T02:35:09;9.10;99.90
36444;DHT22;24692;45.642;13.806;2022-12-04T02:37:41;9.00;99.90
36444;DHT22;24692;45.642;13.806;2022-12-04T02:40:18;8.80;99.90
36444;DHT22;24692;45.642;13.806;2022-12-04T02:43:11;8.80;99.90
36444;DHT22;24692;45.642;13.806;2022-12-04T02:46:00;8.70;99.90
36444;DHT22;24692;45.642;13.806;2022-12-04T02:48:31;8.60;99.90
36444;DHT22;24692;45.642;13.806;2022-12-04T02:50:59;8.40;99.90
36444;DHT22;24692;45.642;13.806;2022-12-04T02:53:31;8.40;99.90
36444;DHT22;24692;45.642;13.806;2022-12-04T02:56:13;8.40;99.90
36444;DHT22;24692;45.642;13.806;2022-12-04T02:58:47;8.40;99.90
36444;DHT22;24692;45.642;13.806;2022-12-04T03:01:18;8.40;99.90
36444;DHT22;24692;45.642;13.806;2022-12-04T03:03:55;8.50;99.90
36444;DHT22;24692;45.642;13.806;2022-12-04T03:06:22;8.50;99.90
36444;DHT22;24692;45.642;13.806;2022-12-04T03:09:02;8.40;99.90
36444;DHT22;24692;45.642;13.806;2022-12-04T03:11:34;8.40;99.90
36444;DHT22;24692;45.642;13.806;2022-12-04T03:14:09;8.50;99.90
36444;DHT22;24692;45.642;13.806;2022-12-04T03:16:40;8.40;99.90
36444;DHT22;24692;45.642;13.806;2022-12-04T03:19:19;8.40;99.90
36444;DHT22;24692;45.642;13.806;2022-12-04T03:21:52;8.30;99.90
36444;DHT22;24692;45.642;13.806;2022-12-04T03:27:00;8.10;99.90
36444;DHT22;24692;45.642;13.806;2022-12-04T03:29:34;8.30;99.90
36444;DHT22;24692;45.642;13.806;2022-12-04T03:32:13;8.10;99.90
36444;DHT22;24692;45.642;13.806;2022-12-04T03:34:53;8.10;99.90
36444;DHT22;24692;45.642;13.806;2022-12-04T03:37:33;8.10;99.90
36444;DHT22;24692;45.642;13.806;2022-12-04T03:43:02;8.20;99.90
36444;DHT22;24692;45.642;13.806;2022-12-04T03:48:23;8.10;99.90
36444;DHT22;24692;45.642;13.806;2022-12-04T03:51:17;8.10;99.90
36444;DHT22;24692;45.642;13.806;2022-12-04T03:53:47;8.20;99.90
36444;DHT22;24692;45.642;13.806;2022-12-04T03:56:25;8.20;99.90
36444;DHT22;24692;45.642;13.806;2022-12-04T03:58:56;8.30;99.90
36444;DHT22;24692;45.642;13.806;2022-12-04T04:01:27;8.30;99.90
36444;DHT22;24692;45.642;13.806;2022-12-04T04:03:55;8.20;99.90
36444;DHT22;24692;45.642;13.806;2022-12-04T04:06:28;8.30;99.90
36444;DHT22;24692;45.642;13.806;2022-12-04T04:08:58;8.50;99.90
36444;DHT22;24692;45.642;13.806;2022-12-04T04:11:34;8.40;99.90
36444;DHT22;24692;45.642;13.806;2022-12-04T04:14:07;8.40;99.90
36444;DHT22;24692;45.642;13.806;2022-12-04T04:16:58;8.40;99.90
36444;DHT22;24692;45.642;13.806;2022-12-04T04:19:48;8.30;99.90
36444;DHT22;24692;45.642;13.806;2022-12-04T04:22:34;8.30;99.90
36444;DHT22;24692;45.642;13.806;2022-12-04T04:25:20;8.20;99.90
36444;DHT22;24692;45.642;13.806;2022-12-04T04:27:53;8.20;99.90
36444;DHT22;24692;45.642;13.806;2022-12-04T04:30:19;8.10;99.90
36444;DHT22;24692;45.642;13.806;2022-12-04T04:33:04;8.10;99.90
36444;DHT22;24692;45.642;13.806;2022-12-04T04:35:52;8.00;99.90
36444;DHT22;24692;45.642;13.806;2022-12-04T04:39:05;8.00;99.90
36444;DHT22;24692;45.642;13.806;2022-12-04T04:41:17;8.00;99.90
36444;DHT22;24692;45.642;13.806;2022-12-04T04:44:19;8.00;99.90
36444;DHT22;24692;45.642;13.806;2022-12-04T04:46:57;8.00;99.90
36444;DHT22;24692;45.642;13.806;2022-12-04T04:49:27;8.00;99.90
36444;DHT22;24692;45.642;13.806;2022-12-04T04:51:54;8.10;99.90
36444;DHT22;24692;45.642;13.806;2022-12-04T04:54:20;8.10;99.90
36444;DHT22;24692;45.642;13.806;2022-12-04T04:56:46;8.20;99.90
36444;DHT22;24692;45.642;13.806;2022-12-04T04:59:13;8.20;99.90
36444;DHT22;24692;45.642;13.806;2022-12-04T05:01:40;8.20;99.90
36444;DHT22;24692;45.642;13.806;2022-12-04T05:04:07;8.30;99.90
36444;DHT22;24692;45.642;13.806;2022-12-04T05:06:33;8.30;99.90
36444;DHT22;24692;45.642;13.806;2022-12-04T05:08:59;8.50;99.90
36444;DHT22;24692;45.642;13.806;2022-12-04T05:11:24;8.60;99.90
36444;DHT22;24692;45.642;13.806;2022-12-04T05:13:50;8.70;99.90
36444;DHT22;24692;45.642;13.806;2022-12-04T05:16:17;8.70;99.90
36444;DHT22;24692;45.642;13.806;2022-12-04T05:18:43;8.80;99.90
36444;DHT22;24692;45.642;13.806;2022-12-04T05:21:29;8.80;99.90
36444;DHT22;24692;45.642;13.806;2022-12-04T05:23:55;9.00;99.90
36444;DHT22;24692;45.642;13.806;2022-12-04T05:26:20;9.00;99.90
36444;DHT22;24692;45.642;13.806;2022-12-04T05:28:46;9.20;99.90
36444;DHT22;24692;45.642;13.806;2022-12-04T05:31:12;9.30;99.90
36444;DHT22;24692;45.642;13.806;2022-12-04T05:33:37;9.40;99.90
36444;DHT22;24692;45.642;13.806;2022-12-04T05:36:07;9.40;99.90
36444;DHT22;24692;45.642;13.806;2022-12-04T05:38:34;9.60;99.90
36444;DHT22;24692;45.642;13.806;2022-12-04T05:41:01;9.70;99.90
36444;DHT22;24692;45.642;13.806;2022-12-04T05:43:28;9.80;99.90
36444;DHT22;24692;45.642;13.806;2022-12-04T05:45:54;9.90;99.90
36444;DHT22;24692;45.642;13.806;2022-12-04T05:48:20;10.00;99.90
36444;DHT22;24692;45.642;13.806;2022-12-04T05:50:45;10.00;99.90
36444;DHT22;24692;45.642;13.806;2022-12-04T05:53:11;10.10;99.90
36444;DHT22;24692;45.642;13.806;2022-12-04T05:55:37;10.10;99.90
36444;DHT22;24692;45.642;13.806;2022-12-04T05:58:03;10.00;99.90
36444;DHT22;24692;45.642;13.806;2022-12-04T06:00:29;10.10;99.90
36444;DHT22;24692;45.642;13.806;2022-12-04T06:02:55;9.90;99.90
36444;DHT22;24692;45.642;13.806;2022-12-04T06:05:20;9.90;99.90
36444;DHT22;24692;45.642;13.806;2022-12-04T06:07:46;10.00;99.90
36444;DHT22;24692;45.642;13.806;2022-12-04T06:10:11;9.80;99.90
36444;DHT22;24692;45.642;13.806;2022-12-04T06:12:37;9.70;99.90
36444;DHT22;24692;45.642;13.806;2022-12-04T06:15:04;9.60;99.90
36444;DHT22;24692;45.642;13.806;2022-12-04T06:17:29;9.50;99.90
36444;DHT22;24692;45.642;13.806;2022-12-04T06:19:55;9.60;99.90
36444;DHT22;24692;45.642;13.806;2022-12-04T06:22:21;9.60;99.90
36444;DHT22;24692;45.642;13.806;2022-12-04T06:24:46;9.50;99.90
36444;DHT22;24692;45.642;13.806;2022-12-04T06:27:12;9.60;99.90
36444;DHT22;24692;45.642;13.806;2022-12-04T06:29:38;9.70;99.90
36444;DHT22;24692;45.642;13.806;2022-12-04T06:32:03;9.70;99.90
36444;DHT22;24692;45.642;13.806;2022-12-04T06:34:29;9.60;99.90
36444;DHT22;24692;45.642;13.806;2022-12-04T06:36:55;9.60;99.90
36444;DHT22;24692;45.642;13.806;2022-12-04T06:39:21;9.60;99.90
36444;DHT22;24692;45.642;13.806;2022-12-04T06:41:46;9.50;99.90
36444;DHT22;24692;45.642;13.806;2022-12-04T06:44:13;9.60;99.90
36444;DHT22;24692;45.642;13.806;2022-12-04T06:46:39;9.50;99.90
36444;DHT22;24692;45.642;13.806;2022-12-04T06:49:05;9.40;99.90
36444;DHT22;24692;45.642;13.806;2022-12-04T06:51:33;9.20;99.90
36444;DHT22;24692;45.642;13.806;2022-12-04T06:54:00;9.10;99.90
36444;DHT22;24692;45.642;13.806;2022-12-04T06:56:29;9.10;99.90
36444;DHT22;24692;45.642;13.806;2022-12-04T06:58:58;9.20;99.90
36444;DHT22;24692;45.642;13.806;2022-12-04T07:01:26;9.20;99.90
36444;DHT22;24692;45.642;13.806;2022-12-04T07:03:53;9.10;99.90
36444;DHT22;24692;45.642;13.806;2022-12-04T07:06:27;9.10;99.90
36444;DHT22;24692;45.642;13.806;2022-12-04T07:11:29;9.00;99.90
36444;DHT22;24692;45.642;13.806;2022-12-04T07:13:55;8.90;99.90
36444;DHT22;24692;45.642;13.806;2022-12-04T07:16:22;8.90;99.90
36444;DHT22;24692;45.642;13.806;2022-12-04T07:18:49;8.90;99.90
36444;DHT22;24692;45.642;13.806;2022-12-04T07:21:20;9.00;99.90
36444;DHT22;24692;45.642;13.806;2022-12-04T07:23:56;9.00;99.90
36444;DHT22;24692;45.642;13.806;2022-12-04T07:26:23;9.10;99.90
36444;DHT22;24692;45.642;13.806;2022-12-04T07:28:49;9.00;99.90
36444;DHT22;24692;45.642;13.806;2022-12-04T07:31:17;9.10;99.90
36444;DHT22;24692;45.642;13.806;2022-12-04T07:33:44;9.10;99.90
36444;DHT22;24692;45.642;13.806;2022-12-04T07:36:13;9.10;99.90
36444;DHT22;24692;45.642;13.806;2022-12-04T07:38:39;9.20;99.90
36444;DHT22;24692;45.642;13.806;2022-12-04T07:41:06;9.30;99.90
36444;DHT22;24692;45.642;13.806;2022-12-04T07:43:32;9.30;99.90
36444;DHT22;24692;45.642;13.806;2022-12-04T07:46:06;9.40;99.90
36444;DHT22;24692;45.642;13.806;2022-12-04T07:48:32;9.50;99.90
36444;DHT22;24692;45.642;13.806;2022-12-04T07:51:06;9.50;99.90
36444;DHT22;24692;45.642;13.806;2022-12-04T07:53:35;9.50;99.90
36444;DHT22;24692;45.642;13.806;2022-12-04T07:56:02;9.60;99.90
36444;DHT22;24692;45.642;13.806;2022-12-04T07:58:28;9.70;99.90
36444;DHT22;24692;45.642;13.806;2022-12-04T08:00:53;9.60;99.90
36444;DHT22;24692;45.642;13.806;2022-12-04T08:03:19;9.50;99.90
36444;DHT22;24692;45.642;13.806;2022-12-04T08:05:45;9.50;99.90
36444;DHT22;24692;45.642;13.806;2022-12-04T08:08:10;9.60;99.90
36444;DHT22;24692;45.642;13.806;2022-12-04T08:10:38;9.70;99.90
36444;DHT22;24692;45.642;13.806;2022-12-04T08:13:04;9.80;99.90
36444;DHT22;24692;45.642;13.806;2022-12-04T08:15:30;9.90;99.90
36444;DHT22;24692;45.642;13.806;2022-12-04T08:17:56;9.90;99.90
36444;DHT22;24692;45.642;13.806;2022-12-04T08:20:21;9.90;99.90
36444;DHT22;24692;45.642;13.806;2022-12-04T08:22:47;9.70;99.90
36444;DHT22;24692;45.642;13.806;2022-12-04T08:25:13;9.60;99.90
36444;DHT22;24692;45.642;13.806;2022-12-04T08:27:38;9.50;99.90
36444;DHT22;24692;45.642;13.806;2022-12-04T08:30:04;9.50;99.90
36444;DHT22;24692;45.642;13.806;2022-12-04T08:32:30;9.50;99.90
36444;DHT22;24692;45.642;13.806;2022-12-04T08:34:56;9.40;99.90
36444;DHT22;24692;45.642;13.806;2022-12-04T08:37:22;9.30;99.90
36444;DHT22;24692;45.642;13.806;2022-12-04T08:39:48;9.40;99.90
36444;DHT22;24692;45.642;13.806;2022-12-04T08:42:13;9.50;99.90
36444;DHT22;24692;45.642;13.806;2022-12-04T08:44:39;9.60;99.90
36444;DHT22;24692;45.642;13.806;2022-12-04T08:47:04;9.70;99.90
36444;DHT22;24692;45.642;13.806;2022-12-04T08:49:30;9.80;99.90
36444;DHT22;24692;45.642;13.806;2022-12-04T08:51:56;10.00;99.90
36444;DHT22;24692;45.642;13.806;2022-12-04T08:54:21;10.20;99.90
36444;DHT22;24692;45.642;13.806;2022-12-04T08:56:47;10.30;99.90
36444;DHT22;24692;45.642;13.806;2022-12-04T08:59:12;10.40;99.90
36444;DHT22;24692;45.642;13.806;2022-12-04T09:01:38;10.40;99.90
36444;DHT22;24692;45.642;13.806;2022-12-04T09:04:04;10.50;99.90
36444;DHT22;24692;45.642;13.806;2022-12-04T09:06:30;10.50;99.90
36444;DHT22;24692;45.642;13.806;2022-12-04T09:08:56;10.70;99.90
36444;DHT22;24692;45.642;13.806;2022-12-04T09:11:25;10.70;99.90
36444;DHT22;24692;45.642;13.806;2022-12-04T09:13:51;10.90;99.90
36444;DHT22;24692;45.642;13.806;2022-12-04T09:16:20;10.90;99.90
36444;DHT22;24692;45.642;13.806;2022-12-04T09:18:46;11.10;99.90
36444;DHT22;24692;45.642;13.806;2022-12-04T09:21:14;11.00;99.90
36444;DHT22;24692;45.642;13.806;2022-12-04T09:23:41;11.00;99.90
36444;DHT22;24692;45.642;13.806;2022-12-04T09:26:17;11.20;99.90
36444;DHT22;24692;45.642;13.806;2022-12-04T09:28:44;11.20;99.90
36444;DHT22;24692;45.642;13.806;2022-12-04T09:31:09;11.30;99.90
36444;DHT22;24692;45.642;13.806;2022-12-04T09:33:35;11.50;99.90
36444;DHT22;24692;45.642;13.806;2022-12-04T09:36:02;11.70;99.90
36444;DHT22;24692;45.642;13.806;2022-12-04T09:38:28;12.10;99.90
36444;DHT22;24692;45.642;13.806;2022-12-04T09:43:56;14.30;99.90
36444;DHT22;24692;45.642;13.806;2022-12-04T09:46:40;15.90;99.90
36444;DHT22;24692;45.642;13.806;2022-12-04T09:49:24;17.00;99.90
36444;DHT22;24692;45.642;13.806;2022-12-04T09:51:52;17.80;99.90
36444;DHT22;24692;45.642;13.806;2022-12-04T09:54:22;18.00;99.90
36444;DHT22;24692;45.642;13.806;2022-12-04T09:57:13;17.90;99.90
36444;DHT22;24692;45.642;13.806;2022-12-04T09:59:40;16.10;99.90
36444;DHT22;24692;45.642;13.806;2022-12-04T10:02:34;14.70;99.90
36444;DHT22;24692;45.642;13.806;2022-12-04T10:05:02;14.10;99.90
36444;DHT22;24692;45.642;13.806;2022-12-04T10:07:32;13.50;99.90
36444;DHT22;24692;45.642;13.806;2022-12-04T10:10:38;13.20;99.90
36444;DHT22;24692;45.642;13.806;2022-12-04T10:18:50;13.20;99.90
36444;DHT22;24692;45.642;13.806;2022-12-04T10:24:21;13.30;99.90
36444;DHT22;24692;45.642;13.806;2022-12-04T10:26:48;13.30;99.90
36444;DHT22;24692;45.642;13.806;2022-12-04T10:29:24;13.20;99.90
36444;DHT22;24692;45.642;13.806;2022-12-04T10:31:54;13.30;99.90
36444;DHT22;24692;45.642;13.806;2022-12-04T10:34:28;13.40;99.90
36444;DHT22;24692;45.642;13.806;2022-12-04T10:36:59;13.20;99.90
36444;DHT22;24692;45.642;13.806;2022-12-04T10:39:31;13.20;99.90
36444;DHT22;24692;45.642;13.806;2022-12-04T10:44:44;13.10;99.90
36444;DHT22;24692;45.642;13.806;2022-12-04T10:47:11;12.80;99.90
36444;DHT22;24692;45.642;13.806;2022-12-04T10:49:38;12.60;99.90
36444;DHT22;24692;45.642;13.806;2022-12-04T10:52:05;12.60;99.90
36444;DHT22;24692;45.642;13.806;2022-12-04T10:54:34;12.40;99.90
36444;DHT22;24692;45.642;13.806;2022-12-04T10:57:05;12.20;99.90
36444;DHT22;24692;45.642;13.806;2022-12-04T10:59:31;12.30;99.90
36444;DHT22;24692;45.642;13.806;2022-12-04T11:04:42;11.90;99.90
36444;DHT22;24692;45.642;13.806;2022-12-04T11:07:29;11.90;99.90
36444;DHT22;24692;45.642;13.806;2022-12-04T11:10:06;11.80;99.90
36444;DHT22;24692;45.642;13.806;2022-12-04T11:12:32;11.70;99.90
36444;DHT22;24692;45.642;13.806;2022-12-04T11:15:17;11.50;99.90
36444;DHT22;24692;45.642;13.806;2022-12-04T11:17:42;11.50;99.90
36444;DHT22;24692;45.642;13.806;2022-12-04T11:20:19;11.40;99.90
36444;DHT22;24692;45.642;13.806;2022-12-04T11:22:55;11.40;99.90
36444;DHT22;24692;45.642;13.806;2022-12-04T11:25:25;11.40;99.90
36444;DHT22;24692;45.642;13.806;2022-12-04T11:27:57;11.30;99.90
36444;DHT22;24692;45.642;13.806;2022-12-04T11:30:30;11.20;99.90
36444;DHT22;24692;45.642;13.806;2022-12-04T11:32:57;11.30;99.90
36444;DHT22;24692;45.642;13.806;2022-12-04T11:35:25;11.20;99.90
36444;DHT22;24692;45.642;13.806;2022-12-04T11:37:58;11.10;99.90
36444;DHT22;24692;45.642;13.806;2022-12-04T11:40:26;11.00;99.90
36444;DHT22;24692;45.642;13.806;2022-12-04T11:43:12;11.00;99.90
36444;DHT22;24692;45.642;13.806;2022-12-04T11:45:38;10.90;99.90
36444;DHT22;24692;45.642;13.806;2022-12-04T11:48:16;11.00;99.90
36444;DHT22;24692;45.642;13.806;2022-12-04T11:51:05;11.00;99.90
36444;DHT22;24692;45.642;13.806;2022-12-04T11:56:29;11.00;99.90
36444;DHT22;24692;45.642;13.806;2022-12-04T12:12:37;10.90;99.90
36444;DHT22;24692;45.642;13.806;2022-12-04T12:23:40;10.70;99.90
36444;DHT22;24692;45.642;13.806;2022-12-04T12:26:15;10.70;99.90
36444;DHT22;24692;45.642;13.806;2022-12-04T12:29:07;10.50;99.90
36444;DHT22;24692;45.642;13.806;2022-12-04T12:34:38;10.50;99.90
36444;DHT22;24692;45.642;13.806;2022-12-04T12:40:04;10.50;99.90
36444;DHT22;24692;45.642;13.806;2022-12-04T12:42:39;10.50;99.90
36444;DHT22;24692;45.642;13.806;2022-12-04T12:45:22;10.50;99.90
36444;DHT22;24692;45.642;13.806;2022-12-04T12:47:55;10.50;99.90
36444;DHT22;24692;45.642;13.806;2022-12-04T12:50:25;10.60;99.90
36444;DHT22;24692;45.642;13.806;2022-12-04T12:52:58;10.60;99.90
36444;DHT22;24692;45.642;13.806;2022-12-04T12:55:35;10.70;99.90
36444;DHT22;24692;45.642;13.806;2022-12-04T12:58:09;10.70;99.90
36444;DHT22;24692;45.642;13.806;2022-12-04T13:00:46;10.70;99.90
36444;DHT22;24692;45.642;13.806;2022-12-04T13:05:52;10.70;99.90
36444;DHT22;24692;45.642;13.806;2022-12-04T13:08:34;10.70;99.90
36444;DHT22;24692;45.642;13.806;2022-12-04T13:11:20;10.70;99.90
36444;DHT22;24692;45.642;13.806;2022-12-04T13:13:59;10.60;99.90
36444;DHT22;24692;45.642;13.806;2022-12-04T13:21:28;10.40;99.90
36444;DHT22;24692;45.642;13.806;2022-12-04T13:26:48;10.30;99.90
36444;DHT22;24692;45.642;13.806;2022-12-04T13:29:40;10.20;99.90
36444;DHT22;24692;45.642;13.806;2022-12-04T13:32:27;10.20;99.90
36444;DHT22;24692;45.642;13.806;2022-12-04T13:38:16;10.20;99.90
36444;DHT22;24692;45.642;13.806;2022-12-04T13:40:52;10.20;99.90
36444;DHT22;24692;45.642;13.806;2022-12-04T13:45:54;10.20;99.90
36444;DHT22;24692;45.642;13.806;2022-12-04T13:51:24;10.20;99.90
36444;DHT22;24692;45.642;13.806;2022-12-04T13:54:03;10.30;99.90
36444;DHT22;24692;45.642;13.806;2022-12-04T13:56:30;10.20;99.90
36444;DHT22;24692;45.642;13.806;2022-12-04T13:59:04;10.10;99.90
36444;DHT22;24692;45.642;13.806;2022-12-04T14:01:38;10.10;99.90
36444;DHT22;24692;45.642;13.806;2022-12-04T14:04:05;10.10;99.90
36444;DHT22;24692;45.642;13.806;2022-12-04T14:06:37;10.00;99.90
36444;DHT22;24692;45.642;13.806;2022-12-04T14:09:07;10.00;99.90
36444;DHT22;24692;45.642;13.806;2022-12-04T14:11:48;9.90;99.90
36444;DHT22;24692;45.642;13.806;2022-12-04T14:14:26;9.90;99.90
36444;DHT22;24692;45.642;13.806;2022-12-04T14:16:54;10.00;99.90
36444;DHT22;24692;45.642;13.806;2022-12-04T14:19:35;10.10;99.90
36444;DHT22;24692;45.642;13.806;2022-12-04T14:22:01;10.10;99.90
36444;DHT22;24692;45.642;13.806;2022-12-04T14:24:36;10.10;99.90
36444;DHT22;24692;45.642;13.806;2022-12-04T14:30:23;10.10;99.90
36444;DHT22;24692;45.642;13.806;2022-12-04T14:32:52;10.10;99.90
36444;DHT22;24692;45.642;13.806;2022-12-04T14:35:22;10.10;99.90
36444;DHT22;24692;45.642;13.806;2022-12-04T14:38:00;10.10;99.90
36444;DHT22;24692;45.642;13.806;2022-12-04T14:40:41;10.00;99.90
36444;DHT22;24692;45.642;13.806;2022-12-04T14:43:22;10.00;99.90
36444;DHT22;24692;45.642;13.806;2022-12-04T14:45:59;10.10;99.90
36444;DHT22;24692;45.642;13.806;2022-12-04T14:51:29;10.20;99.90
36444;DHT22;24692;45.642;13.806;2022-12-04T14:54:03;10.20;99.90
36444;DHT22;24692;45.642;13.806;2022-12-04T14:59:19;10.30;99.90
36444;DHT22;24692;45.642;13.806;2022-12-04T15:01:47;10.30;99.90
36444;DHT22;24692;45.642;13.806;2022-12-04T15:04:25;10.30;99.90
36444;DHT22;24692;45.642;13.806;2022-12-04T15:06:52;10.30;99.90
36444;DHT22;24692;45.642;13.806;2022-12-04T15:09:21;10.30;99.90
36444;DHT22;24692;45.642;13.806;2022-12-04T15:12:21;10.30;99.90
36444;DHT22;24692;45.642;13.806;2022-12-04T15:15:07;10.20;99.90
36444;DHT22;24692;45.642;13.806;2022-12-04T15:17:34;10.20;99.90
36444;DHT22;24692;45.642;13.806;2022-12-04T15:20:20;10.10;99.90
36444;DHT22;24692;45.642;13.806;2022-12-04T15:22:46;10.10;99.90
36444;DHT22;24692;45.642;13.806;2022-12-04T15:25:20;10.20;99.90
36444;DHT22;24692;45.642;13.806;2022-12-04T15:27:48;10.20;99.90
36444;DHT22;24692;45.642;13.806;2022-12-04T15:30:18;10.20;99.90
36444;DHT22;24692;45.642;13.806;2022-12-04T15:32:45;10.20;99.90
36444;DHT22;24692;45.642;13.806;2022-12-04T15:35:18;10.20;99.90
36444;DHT22;24692;45.642;13.806;2022-12-04T15:37:44;10.20;99.90
36444;DHT22;24692;45.642;13.806;2022-12-04T15:40:23;10.10;99.90
36444;DHT22;24692;45.642;13.806;2022-12-04T15:42:50;10.10;99.90
36444;DHT22;24692;45.642;13.806;2022-12-04T15:52:48;10.50;99.90
36444;DHT22;24692;45.642;13.806;2022-12-04T15:55:16;10.50;99.90
36444;DHT22;24692;45.642;13.806;2022-12-04T15:57:42;10.50;99.90
36444;DHT22;24692;45.642;13.806;2022-12-04T16:00:22;10.40;99.90
36444;DHT22;24692;45.642;13.806;2022-12-04T16:02:48;10.40;99.90
36444;DHT22;24692;45.642;13.806;2022-12-04T16:07:52;10.40;99.90
36444;DHT22;24692;45.642;13.806;2022-12-04T16:10:30;10.40;99.90
36444;DHT22;24692;45.642;13.806;2022-12-04T16:12:58;10.50;99.90
36444;DHT22;24692;45.642;13.806;2022-12-04T16:15:34;10.40;99.90
36444;DHT22;24692;45.642;13.806;2022-12-04T16:18:01;10.40;99.90
36444;DHT22;24692;45.642;13.806;2022-12-04T16:20:27;10.30;99.90
36444;DHT22;24692;45.642;13.806;2022-12-04T16:22:53;10.40;99.90
36444;DHT22;24692;45.642;13.806;2022-12-04T16:25:19;10.40;99.90
36444;DHT22;24692;45.642;13.806;2022-12-04T16:27:45;10.40;99.90
36444;DHT22;24692;45.642;13.806;2022-12-04T16:30:12;10.40;99.90
36444;DHT22;24692;45.642;13.806;2022-12-04T16:32:38;10.50;99.90
36444;DHT22;24692;45.642;13.806;2022-12-04T16:35:04;10.60;99.90
36444;DHT22;24692;45.642;13.806;2022-12-04T16:37:31;10.80;99.90
36444;DHT22;24692;45.642;13.806;2022-12-04T16:39:57;10.90;99.90
36444;DHT22;24692;45.642;13.806;2022-12-04T16:42:28;10.90;99.90
36444;DHT22;24692;45.642;13.806;2022-12-04T16:44:54;10.90;99.90
36444;DHT22;24692;45.642;13.806;2022-12-04T16:47:20;10.90;99.90
36444;DHT22;24692;45.642;13.806;2022-12-04T16:49:50;10.90;99.90
36444;DHT22;24692;45.642;13.806;2022-12-04T16:52:16;10.90;99.90
36444;DHT22;24692;45.642;13.806;2022-12-04T16:54:42;10.90;99.90
36444;DHT22;24692;45.642;13.806;2022-12-04T16:57:08;10.80;99.90
36444;DHT22;24692;45.642;13.806;2022-12-04T16:59:34;10.80;99.90
36444;DHT22;24692;45.642;13.806;2022-12-04T17:02:01;10.90;99.90
36444;DHT22;24692;45.642;13.806;2022-12-04T17:04:27;10.90;99.90
36444;DHT22;24692;45.642;13.806;2022-12-04T17:06:52;10.90;99.90
36444;DHT22;24692;45.642;13.806;2022-12-04T17:09:18;10.90;99.90
36444;DHT22;24692;45.642;13.806;2022-12-04T17:11:44;11.00;99.90
36444;DHT22;24692;45.642;13.806;2022-12-04T17:14:10;11.00;99.90
36444;DHT22;24692;45.642;13.806;2022-12-04T17:16:38;11.00;99.90
36444;DHT22;24692;45.642;13.806;2022-12-04T17:19:07;11.20;99.90
36444;DHT22;24692;45.642;13.806;2022-12-04T17:21:32;11.30;99.90
36444;DHT22;24692;45.642;13.806;2022-12-04T17:23:59;11.40;99.90
36444;DHT22;24692;45.642;13.806;2022-12-04T17:26:25;11.50;99.90
36444;DHT22;24692;45.642;13.806;2022-12-04T17:28:51;11.60;99.90
36444;DHT22;24692;45.642;13.806;2022-12-04T17:31:20;11.70;99.90
36444;DHT22;24692;45.642;13.806;2022-12-04T17:33:46;11.70;99.90
36444;DHT22;24692;45.642;13.806;2022-12-04T17:36:15;11.70;99.90
36444;DHT22;24692;45.642;13.806;2022-12-04T17:38:41;11.70;99.90
36444;DHT22;24692;45.642;13.806;2022-12-04T17:41:09;11.70;99.90